sensor_id;sensor_type;location;lat;lon;timestamp;pressure;altitude;pressure_sealevel;temperature;humidity
77092;BME280;66032;48.252;11.638;2023-03-01T00:01:28;96601.91;;;1.12;72.79
77092;BME280;66032;48.252;11.638;2023-03-01T00:03:56;96595.91;;;1.10;72.87
77092;BME280;66032;48.252;11.638;2023-03-01T00:06:23;96597.59;;;1.11;73.08
77092;BME280;66032;48.252;11.638;2023-03-01T00:08:50;96600.22;;;1.11;72.90
77092;BME280;66032;48.252;11.638;2023-03-01T00:11:19;96589.78;;;1.11;72.62
77092;BME280;66032;48.252;11.638;2023-03-01T00:13:48;96587.16;;;1.11;72.90
77092;BME280;66032;48.252;11.638;2023-03-01T00:16:16;96589.84;;;1.10;72.68
77092;BME280;66032;48.252;11.638;2023-03-01T00:18:44;96596.75;;;1.11;72.77
77092;BME280;66032;48.252;11.638;2023-03-01T00:21:11;96589.00;;;1.09;72.82
77092;BME280;66032;48.252;11.638;2023-03-01T00:23:39;96586.31;;;1.11;73.21
77092;BME280;66032;48.252;11.638;2023-03-01T00:26:07;96586.50;;;1.08;72.83
77092;BME280;66032;48.252;11.638;2023-03-01T00:28:36;96580.53;;;1.06;73.65
77092;BME280;66032;48.252;11.638;2023-03-01T00:31:07;96583.06;;;1.07;73.41
77092;BME280;66032;48.252;11.638;2023-03-01T00:33:35;96582.22;;;1.07;73.38
77092;BME280;66032;48.252;11.638;2023-03-01T00:36:02;96583.97;;;1.06;72.94
77092;BME280;66032;48.252;11.638;2023-03-01T00:38:29;96580.53;;;1.06;73.13
77092;BME280;66032;48.252;11.638;2023-03-01T00:41:02;96571.84;;;1.05;73.06
77092;BME280;66032;48.252;11.638;2023-03-01T00:43:29;96572.78;;;1.04;72.95
77092;BME280;66032;48.252;11.638;2023-03-01T00:46:00;96569.31;;;1.04;73.21
77092;BME280;66032;48.252;11.638;2023-03-01T00:48:27;96572.00;;;1.02;73.07
77092;BME280;66032;48.252;11.638;2023-03-01T00:50:54;96567.81;;;1.00;72.97
77092;BME280;66032;48.252;11.638;2023-03-01T00:53:21;96566.97;;;0.99;73.18
77092;BME280;66032;48.252;11.638;2023-03-01T00:55:48;96567.91;;;0.98;73.21
77092;BME280;66032;48.252;11.638;2023-03-01T00:58:15;96565.22;;;1.00;73.27
77092;BME280;66032;48.252;11.638;2023-03-01T01:00:42;96560.91;;;0.99;73.11
77092;BME280;66032;48.252;11.638;2023-03-01T01:03:09;96554.84;;;0.98;73.62
77092;BME280;66032;48.252;11.638;2023-03-01T01:05:36;96547.94;;;0.97;73.52
77092;BME280;66032;48.252;11.638;2023-03-01T01:08:03;96547.84;;;0.99;73.51
77092;BME280;66032;48.252;11.638;2023-03-01T01:10:30;96545.25;;;0.99;73.49
77092;BME280;66032;48.252;11.638;2023-03-01T01:13:00;96542.56;;;1.00;73.26
77092;BME280;66032;48.252;11.638;2023-03-01T01:15:27;96542.56;;;1.00;73.17
77092;BME280;66032;48.252;11.638;2023-03-01T01:17:54;96536.50;;;1.00;73.30
77092;BME280;66032;48.252;11.638;2023-03-01T01:20:21;96533.88;;;1.00;73.44
77092;BME280;66032;48.252;11.638;2023-03-01T01:22:48;96540.03;;;0.99;73.29
77092;BME280;66032;48.252;11.638;2023-03-01T01:25:15;96531.34;;;0.98;73.55
77092;BME280;66032;48.252;11.638;2023-03-01T01:27:42;96529.50;;;1.00;73.44
77092;BME280;66032;48.252;11.638;2023-03-01T01:30:09;96523.53;;;0.98;73.11
77092;BME280;66032;48.252;11.638;2023-03-01T01:32:36;96523.53;;;0.98;73.10
77092;BME280;66032;48.252;11.638;2023-03-01T01:35:04;96525.38;;;0.96;73.20
77092;BME280;66032;48.252;11.638;2023-03-01T01:37:31;96518.47;;;0.95;73.26
77092;BME280;66032;48.252;11.638;2023-03-01T01:39:58;96521.22;;;0.92;73.39
77092;BME280;66032;48.252;11.638;2023-03-01T01:42:26;96516.13;;;0.91;73.25
77092;BME280;66032;48.252;11.638;2023-03-01T01:47:39;96521.22;;;0.92;73.24
77092;BME280;66032;48.252;11.638;2023-03-01T01:50:08;96518.63;;;0.92;73.19
77092;BME280;66032;48.252;11.638;2023-03-01T01:52:41;96513.50;;;0.91;73.22
77092;BME280;66032;48.252;11.638;2023-03-01T01:55:09;96514.16;;;0.94;73.29
77092;BME280;66032;48.252;11.638;2023-03-01T01:57:39;96511.75;;;0.91;73.07
77092;BME280;66032;48.252;11.638;2023-03-01T02:00:09;96510.97;;;0.89;73.05
77092;BME280;66032;48.252;11.638;2023-03-01T02:02:40;96500.63;;;0.88;73.13
77092;BME280;66032;48.252;11.638;2023-03-01T02:05:12;96502.22;;;0.90;73.23
77092;BME280;66032;48.252;11.638;2023-03-01T02:07:42;96507.59;;;0.87;73.14
77092;BME280;66032;48.252;11.638;2023-03-01T02:10:09;96498.09;;;0.86;72.99
77092;BME280;66032;48.252;11.638;2023-03-01T02:12:37;96494.00;;;0.82;72.93
77092;BME280;66032;48.252;11.638;2023-03-01T02:15:05;96494.00;;;0.82;73.28
77092;BME280;66032;48.252;11.638;2023-03-01T02:17:32;96496.69;;;0.81;72.78
77092;BME280;66032;48.252;11.638;2023-03-01T02:20:07;96499.38;;;0.79;73.23
77092;BME280;66032;48.252;11.638;2023-03-01T02:22:41;96495.06;;;0.78;72.98
77092;BME280;66032;48.252;11.638;2023-03-01T02:30:32;96489.09;;;0.76;72.99
77092;BME280;66032;48.252;11.638;2023-03-01T02:33:00;96502.41;;;0.71;72.62
77092;BME280;66032;48.252;11.638;2023-03-01T02:35:32;96503.41;;;0.69;72.35
77092;BME280;66032;48.252;11.638;2023-03-01T02:38:06;96485.34;;;0.66;72.01
77092;BME280;66032;48.252;11.638;2023-03-01T02:40:34;96491.63;;;0.62;72.17
77092;BME280;66032;48.252;11.638;2023-03-01T02:43:03;96489.09;;;0.60;72.45
77092;BME280;66032;48.252;11.638;2023-03-01T02:45:31;96478.94;;;0.56;72.18
77092;BME280;66032;48.252;11.638;2023-03-01T02:47:58;96479.84;;;0.55;72.21
77092;BME280;66032;48.252;11.638;2023-03-01T02:55:23;96470.50;;;0.51;72.30
77092;BME280;66032;48.252;11.638;2023-03-01T02:57:50;96484.47;;;0.50;71.94
77092;BME280;66032;48.252;11.638;2023-03-01T03:00:19;96468.22;;;0.45;72.36
77092;BME280;66032;48.252;11.638;2023-03-01T03:02:51;96482.03;;;0.47;72.68
77092;BME280;66032;48.252;11.638;2023-03-01T03:05:26;96474.38;;;0.44;72.81
77092;BME280;66032;48.252;11.638;2023-03-01T03:07:56;96475.97;;;0.46;72.81
77092;BME280;66032;48.252;11.638;2023-03-01T03:10:25;96478.66;;;0.45;72.62
77092;BME280;66032;48.252;11.638;2023-03-01T03:12:54;96476.06;;;0.45;73.09
77092;BME280;66032;48.252;11.638;2023-03-01T03:15:22;96468.41;;;0.42;73.15
77092;BME280;66032;48.252;11.638;2023-03-01T03:17:49;96483.09;;;0.43;73.38
77092;BME280;66032;48.252;11.638;2023-03-01T03:20:18;96474.44;;;0.42;73.25
77092;BME280;66032;48.252;11.638;2023-03-01T03:22:46;96478.84;;;0.42;73.67
77092;BME280;66032;48.252;11.638;2023-03-01T03:25:14;96480.69;;;0.40;72.99
77092;BME280;66032;48.252;11.638;2023-03-01T03:27:41;96474.78;;;0.36;73.50
77092;BME280;66032;48.252;11.638;2023-03-01T03:30:12;96473.09;;;0.35;73.90
77092;BME280;66032;48.252;11.638;2023-03-01T03:32:41;96469.81;;;0.31;73.23
77092;BME280;66032;48.252;11.638;2023-03-01T03:35:09;96469.91;;;0.30;73.96
77092;BME280;66032;48.252;11.638;2023-03-01T03:37:39;96459.56;;;0.28;73.76
77092;BME280;66032;48.252;11.638;2023-03-01T03:40:28;96464.25;;;0.22;73.93
77092;BME280;66032;48.252;11.638;2023-03-01T03:42:55;96480.06;;;0.19;74.17
77092;BME280;66032;48.252;11.638;2023-03-01T03:45:22;96469.63;;;0.19;74.00
77092;BME280;66032;48.252;11.638;2023-03-01T03:47:49;96468.13;;;0.15;74.77
77092;BME280;66032;48.252;11.638;2023-03-01T03:50:16;96457.00;;;0.11;74.52
77092;BME280;66032;48.252;11.638;2023-03-01T03:52:44;96463.91;;;0.12;74.64
77092;BME280;66032;48.252;11.638;2023-03-01T03:55:11;96450.28;;;0.07;74.83
77092;BME280;66032;48.252;11.638;2023-03-01T03:57:40;96451.28;;;0.05;74.53
77092;BME280;66032;48.252;11.638;2023-03-01T04:00:09;96448.75;;;0.03;74.83
77092;BME280;66032;48.252;11.638;2023-03-01T04:02:42;96449.03;;;-0.02;74.50
77092;BME280;66032;48.252;11.638;2023-03-01T04:05:10;96439.59;;;-0.04;74.15
77092;BME280;66032;48.252;11.638;2023-03-01T04:07:38;96438.91;;;-0.08;74.37
77092;BME280;66032;48.252;11.638;2023-03-01T04:10:06;96444.38;;;-0.12;74.35
77092;BME280;66032;48.252;11.638;2023-03-01T04:12:34;96449.34;;;-0.25;73.94
77092;BME280;66032;48.252;11.638;2023-03-01T04:15:02;96447.16;;;-0.32;74.54
77092;BME280;66032;48.252;11.638;2023-03-01T04:17:42;96445.13;;;-0.43;75.07
77092;BME280;66032;48.252;11.638;2023-03-01T04:20:11;96441.53;;;-0.58;75.18
77092;BME280;66032;48.252;11.638;2023-03-01T04:22:39;96443.91;;;-0.70;75.44
77092;BME280;66032;48.252;11.638;2023-03-01T04:25:06;96445.28;;;-0.81;75.85
77092;BME280;66032;48.252;11.638;2023-03-01T04:27:34;96449.19;;;-0.89;76.44
77092;BME280;66032;48.252;11.638;2023-03-01T04:30:02;96443.66;;;-1.00;76.68
77092;BME280;66032;48.252;11.638;2023-03-01T04:32:30;96451.00;;;-1.08;77.46
77092;BME280;66032;48.252;11.638;2023-03-01T04:34:57;96447.03;;;-1.16;78.54
77092;BME280;66032;48.252;11.638;2023-03-01T04:37:24;96431.84;;;-1.25;79.28
77092;BME280;66032;48.252;11.638;2023-03-01T04:39:51;96438.34;;;-1.33;79.42
77092;BME280;66032;48.252;11.638;2023-03-01T04:42:19;96444.75;;;-1.40;79.76
77092;BME280;66032;48.252;11.638;2023-03-01T04:44:46;96451.16;;;-1.47;79.94
77092;BME280;66032;48.252;11.638;2023-03-01T04:47:13;96451.41;;;-1.52;79.97
77092;BME280;66032;48.252;11.638;2023-03-01T04:49:40;96453.41;;;-1.59;80.51
77092;BME280;66032;48.252;11.638;2023-03-01T04:52:07;96448.38;;;-1.62;80.22
77092;BME280;66032;48.252;11.638;2023-03-01T04:54:36;96448.56;;;-1.66;80.46
77092;BME280;66032;48.252;11.638;2023-03-01T04:57:03;96435.75;;;-1.69;80.68
77092;BME280;66032;48.252;11.638;2023-03-01T04:59:30;96435.88;;;-1.72;80.72
77092;BME280;66032;48.252;11.638;2023-03-01T05:01:57;96444.66;;;-1.75;80.63
77092;BME280;66032;48.252;11.638;2023-03-01T05:04:24;96441.31;;;-1.77;80.37
77092;BME280;66032;48.252;11.638;2023-03-01T05:06:51;96427.53;;;-1.79;80.34
77092;BME280;66032;48.252;11.638;2023-03-01T05:09:20;96432.72;;;-1.79;80.47
77092;BME280;66032;48.252;11.638;2023-03-01T05:11:47;96433.72;;;-1.81;80.58
77092;BME280;66032;48.252;11.638;2023-03-01T05:14:14;96420.72;;;-1.81;80.31
77092;BME280;66032;48.252;11.638;2023-03-01T05:16:41;96429.34;;;-1.81;80.04
77092;BME280;66032;48.252;11.638;2023-03-01T05:19:08;96434.47;;;-1.79;79.98
77092;BME280;66032;48.252;11.638;2023-03-01T05:21:42;96425.63;;;-1.75;79.82
77092;BME280;66032;48.252;11.638;2023-03-01T05:24:28;96425.41;;;-1.71;79.50
77092;BME280;66032;48.252;11.638;2023-03-01T05:26:55;96430.38;;;-1.66;79.38
77092;BME280;66032;48.252;11.638;2023-03-01T05:29:23;96439.75;;;-1.62;79.24
77092;BME280;66032;48.252;11.638;2023-03-01T05:31:57;96428.28;;;-1.58;79.07
77092;BME280;66032;48.252;11.638;2023-03-01T05:34:25;96425.53;;;-1.55;78.87
77092;BME280;66032;48.252;11.638;2023-03-01T05:36:52;96428.75;;;-1.50;78.72
77092;BME280;66032;48.252;11.638;2023-03-01T05:39:20;96421.59;;;-1.45;78.46
77092;BME280;66032;48.252;11.638;2023-03-01T05:41:58;96425.56;;;-1.38;78.09
77092;BME280;66032;48.252;11.638;2023-03-01T05:44:25;96424.44;;;-1.32;78.03
77092;BME280;66032;48.252;11.638;2023-03-01T05:46:53;96429.25;;;-1.25;78.03
77092;BME280;66032;48.252;11.638;2023-03-01T05:49:20;96418.56;;;-1.19;77.56
77092;BME280;66032;48.252;11.638;2023-03-01T05:51:51;96414.81;;;-1.13;76.86
77092;BME280;66032;48.252;11.638;2023-03-01T05:54:19;96415.44;;;-1.08;76.93
77092;BME280;66032;48.252;11.638;2023-03-01T05:56:46;96419.44;;;-1.01;76.52
77092;BME280;66032;48.252;11.638;2023-03-01T05:59:13;96419.97;;;-0.94;76.33
77092;BME280;66032;48.252;11.638;2023-03-01T06:01:41;96418.88;;;-0.90;75.75
77092;BME280;66032;48.252;11.638;2023-03-01T06:04:09;96421.09;;;-0.83;75.73
77092;BME280;66032;48.252;11.638;2023-03-01T06:06:36;96417.44;;;-0.79;75.37
77092;BME280;66032;48.252;11.638;2023-03-01T06:09:04;96413.91;;;-0.78;75.39
77092;BME280;66032;48.252;11.638;2023-03-01T06:11:34;96420.63;;;-0.73;75.00
77092;BME280;66032;48.252;11.638;2023-03-01T06:14:01;96421.34;;;-0.70;74.83
77092;BME280;66032;48.252;11.638;2023-03-01T06:16:28;96431.56;;;-0.67;74.85
77092;BME280;66032;48.252;11.638;2023-03-01T06:18:56;96432.28;;;-0.63;74.31
77092;BME280;66032;48.252;11.638;2023-03-01T06:21:23;96446.19;;;-0.64;73.94
77092;BME280;66032;48.252;11.638;2023-03-01T06:23:50;96431.28;;;-0.61;74.18
77092;BME280;66032;48.252;11.638;2023-03-01T06:26:18;96437.34;;;-0.60;73.76
77092;BME280;66032;48.252;11.638;2023-03-01T06:28:45;96439.94;;;-0.60;73.84
77092;BME280;66032;48.252;11.638;2023-03-01T06:31:12;96432.97;;;-0.60;73.79
77092;BME280;66032;48.252;11.638;2023-03-01T06:33:40;96440.00;;;-0.62;73.84
77092;BME280;66032;48.252;11.638;2023-03-01T06:36:07;96433.81;;;-0.59;73.76
77092;BME280;66032;48.252;11.638;2023-03-01T06:38:34;96437.25;;;-0.59;73.58
77092;BME280;66032;48.252;11.638;2023-03-01T06:41:01;96439.69;;;-0.56;73.76
77092;BME280;66032;48.252;11.638;2023-03-01T06:43:28;96440.47;;;-0.54;73.60
77092;BME280;66032;48.252;11.638;2023-03-01T06:45:55;96442.91;;;-0.51;73.34
77092;BME280;66032;48.252;11.638;2023-03-01T06:48:22;96435.63;;;-0.44;73.55
77092;BME280;66032;48.252;11.638;2023-03-01T06:50:49;96447.94;;;-0.48;72.90
77092;BME280;66032;48.252;11.638;2023-03-01T06:53:16;96440.97;;;-0.47;73.33
77092;BME280;66032;48.252;11.638;2023-03-01T06:55:43;96443.44;;;-0.44;73.35
77092;BME280;66032;48.252;11.638;2023-03-01T06:58:10;96440.75;;;-0.43;72.80
77092;BME280;66032;48.252;11.638;2023-03-01T07:00:38;96438.91;;;-0.41;73.20
77092;BME280;66032;48.252;11.638;2023-03-01T07:03:07;96430.94;;;-0.38;73.07
77092;BME280;66032;48.252;11.638;2023-03-01T07:05:35;96432.63;;;-0.36;73.07
77092;BME280;66032;48.252;11.638;2023-03-01T07:08:02;96434.06;;;-0.31;72.67
77092;BME280;66032;48.252;11.638;2023-03-01T07:10:29;96433.97;;;-0.29;72.67
77092;BME280;66032;48.252;11.638;2023-03-01T07:12:57;96431.53;;;-0.32;72.40
77092;BME280;66032;48.252;11.638;2023-03-01T07:15:24;96440.94;;;-0.30;72.14
77092;BME280;66032;48.252;11.638;2023-03-01T07:17:52;96432.22;;;-0.29;72.19
77092;BME280;66032;48.252;11.638;2023-03-01T07:20:19;96424.34;;;-0.27;72.13
77092;BME280;66032;48.252;11.638;2023-03-01T07:22:51;96420.56;;;-0.22;72.75
77092;BME280;66032;48.252;11.638;2023-03-01T07:25:19;96433.25;;;-0.16;71.89
77092;BME280;66032;48.252;11.638;2023-03-01T07:27:50;96427.81;;;-0.11;72.03
77092;BME280;66032;48.252;11.638;2023-03-01T07:30:18;96416.13;;;-0.04;71.59
77092;BME280;66032;48.252;11.638;2023-03-01T07:32:45;96410.44;;;0.05;71.69
77092;BME280;66032;48.252;11.638;2023-03-01T07:35:13;96413.47;;;0.13;70.33
77092;BME280;66032;48.252;11.638;2023-03-01T07:37:41;96413.47;;;0.13;70.13
77092;BME280;66032;48.252;11.638;2023-03-01T07:40:09;96416.75;;;0.17;69.94
77092;BME280;66032;48.252;11.638;2023-03-01T07:42:36;96409.53;;;0.22;69.97
77092;BME280;66032;48.252;11.638;2023-03-01T07:45:04;96404.97;;;0.25;69.62
77092;BME280;66032;48.252;11.638;2023-03-01T07:47:32;96423.56;;;0.19;69.32
77092;BME280;66032;48.252;11.638;2023-03-01T07:49:59;96408.34;;;0.27;69.68
77092;BME280;66032;48.252;11.638;2023-03-01T07:52:28;96402.19;;;0.28;69.65
77092;BME280;66032;48.252;11.638;2023-03-01T07:54:55;96410.09;;;0.27;69.17
77092;BME280;66032;48.252;11.638;2023-03-01T07:57:22;96406.22;;;0.34;69.29
77092;BME280;66032;48.252;11.638;2023-03-01T07:59:49;96411.78;;;0.44;68.74
77092;BME280;66032;48.252;11.638;2023-03-01T08:02:16;96417.69;;;0.31;68.80
77092;BME280;66032;48.252;11.638;2023-03-01T08:04:43;96398.59;;;0.31;69.61
77092;BME280;66032;48.252;11.638;2023-03-01T08:07:10;96411.06;;;0.42;68.77
77092;BME280;66032;48.252;11.638;2023-03-01T08:09:37;96396.47;;;0.53;68.64
77092;BME280;66032;48.252;11.638;2023-03-01T08:12:04;96404.06;;;0.58;68.40
77092;BME280;66032;48.252;11.638;2023-03-01T08:14:32;96394.75;;;0.68;68.12
77092;BME280;66032;48.252;11.638;2023-03-01T08:16:59;96393.91;;;0.83;67.92
77092;BME280;66032;48.252;11.638;2023-03-01T08:19:26;96390.34;;;1.00;67.17
77092;BME280;66032;48.252;11.638;2023-03-01T08:21:54;96391.13;;;1.16;66.74
77092;BME280;66032;48.252;11.638;2023-03-01T08:24:25;96399.44;;;1.23;66.04
77092;BME280;66032;48.252;11.638;2023-03-01T08:26:52;96407.50;;;1.34;65.68
77092;BME280;66032;48.252;11.638;2023-03-01T08:29:20;96385.38;;;1.53;65.65
77092;BME280;66032;48.252;11.638;2023-03-01T08:31:47;96396.13;;;1.63;65.01
77092;BME280;66032;48.252;11.638;2023-03-01T08:34:16;96418.34;;;1.84;63.77
77092;BME280;66032;48.252;11.638;2023-03-01T08:36:43;96396.31;;;1.60;65.06
77092;BME280;66032;48.252;11.638;2023-03-01T08:39:13;96383.72;;;1.81;64.44
77092;BME280;66032;48.252;11.638;2023-03-01T08:41:40;96381.56;;;2.16;64.05
77092;BME280;66032;48.252;11.638;2023-03-01T08:44:09;96371.38;;;2.52;62.53
77092;BME280;66032;48.252;11.638;2023-03-01T08:46:38;96379.22;;;2.79;61.94
77092;BME280;66032;48.252;11.638;2023-03-01T08:49:08;96368.41;;;2.98;60.80
77092;BME280;66032;48.252;11.638;2023-03-01T08:51:35;96378.31;;;3.32;60.49
77092;BME280;66032;48.252;11.638;2023-03-01T08:54:04;96375.81;;;3.56;59.81
77092;BME280;66032;48.252;11.638;2023-03-01T08:56:31;96366.25;;;3.55;58.99
77092;BME280;66032;48.252;11.638;2023-03-01T08:58:58;96380.78;;;3.21;60.20
77092;BME280;66032;48.252;11.638;2023-03-01T09:01:25;96365.09;;;3.21;60.74
77092;BME280;66032;48.252;11.638;2023-03-01T09:03:52;96365.72;;;3.25;61.07
77092;BME280;66032;48.252;11.638;2023-03-01T09:06:19;96363.69;;;3.03;61.73
77092;BME280;66032;48.252;11.638;2023-03-01T09:08:47;96362.69;;;2.79;61.74
77092;BME280;66032;48.252;11.638;2023-03-01T09:11:16;96365.94;;;2.82;62.03
77092;BME280;66032;48.252;11.638;2023-03-01T09:13:43;96367.03;;;2.65;62.19
77092;BME280;66032;48.252;11.638;2023-03-01T09:16:11;96366.59;;;2.59;62.21
77092;BME280;66032;48.252;11.638;2023-03-01T09:18:39;96372.81;;;2.71;62.53
77092;BME280;66032;48.252;11.638;2023-03-01T09:21:14;96372.47;;;2.62;61.99
77092;BME280;66032;48.252;11.638;2023-03-01T09:23:53;96368.31;;;2.73;62.32
77092;BME280;66032;48.252;11.638;2023-03-01T09:26:20;96371.19;;;2.82;62.10
77092;BME280;66032;48.252;11.638;2023-03-01T09:28:49;96373.22;;;2.64;62.41
77092;BME280;66032;48.252;11.638;2023-03-01T09:31:16;96366.94;;;2.67;62.85
77092;BME280;66032;48.252;11.638;2023-03-01T09:33:45;96353.88;;;2.80;62.02
77092;BME280;66032;48.252;11.638;2023-03-01T09:36:15;96356.88;;;3.00;61.95
77092;BME280;66032;48.252;11.638;2023-03-01T09:38:42;96360.50;;;3.25;60.75
77092;BME280;66032;48.252;11.638;2023-03-01T09:41:10;96357.97;;;3.36;60.15
77092;BME280;66032;48.252;11.638;2023-03-01T09:43:45;96355.88;;;3.28;60.68
77092;BME280;66032;48.252;11.638;2023-03-01T09:46:14;96345.09;;;4.33;57.88
77092;BME280;66032;48.252;11.638;2023-03-01T09:49:07;96348.72;;;5.83;nan
77092;BME280;66032;48.252;11.638;2023-03-01T09:51:32;96341.63;;;6.50;nan
77092;BME280;66032;48.252;11.638;2023-03-01T09:54:03;96337.94;;;6.53;nan
77092;BME280;66032;48.252;11.638;2023-03-01T09:56:37;96360.59;;;5.99;nan
77092;BME280;66032;48.252;11.638;2023-03-01T10:04:28;96327.09;;;7.82;nan
77092;BME280;66032;48.252;11.638;2023-03-01T10:09:33;96311.41;;;8.11;nan
77092;BME280;66032;48.252;11.638;2023-03-01T10:12:01;96321.81;;;8.43;nan
77092;BME280;66032;48.252;11.638;2023-03-01T10:14:30;96336.63;;;8.04;nan
77092;BME280;66032;48.252;11.638;2023-03-01T10:19:34;96313.97;;;7.71;nan
77092;BME280;66032;48.252;11.638;2023-03-01T10:22:18;96320.06;;;7.41;nan
77092;BME280;66032;48.252;11.638;2023-03-01T10:24:48;96314.78;;;7.20;nan
77092;BME280;66032;48.252;11.638;2023-03-01T10:28:17;96307.38;;;6.93;nan
77092;BME280;66032;48.252;11.638;2023-03-01T10:30:16;96298.75;;;7.12;nan
77092;BME280;66032;48.252;11.638;2023-03-01T10:32:44;96302.50;;;7.09;nan
77092;BME280;66032;48.252;11.638;2023-03-01T10:35:34;96327.47;;;6.62;nan
77092;BME280;66032;48.252;11.638;2023-03-01T10:38:11;96312.09;;;5.80;nan
77092;BME280;66032;48.252;11.638;2023-03-01T10:41:14;96300.53;;;5.82;nan
77092;BME280;66032;48.252;11.638;2023-03-01T10:43:47;96305.41;;;5.64;nan
77092;BME280;66032;48.252;11.638;2023-03-01T10:46:31;96304.31;;;5.33;nan
77092;BME280;66032;48.252;11.638;2023-03-01T10:49:12;96291.25;;;5.21;nan
77092;BME280;66032;48.252;11.638;2023-03-01T10:51:40;96306.34;;;4.95;nan
77092;BME280;66032;48.252;11.638;2023-03-01T10:54:21;96285.75;;;4.43;nan
77092;BME280;66032;48.252;11.638;2023-03-01T10:56:50;96289.47;;;4.51;nan
77092;BME280;66032;48.252;11.638;2023-03-01T10:59:21;96284.75;;;4.44;nan
77092;BME280;66032;48.252;11.638;2023-03-01T11:02:01;96275.09;;;4.44;nan
77092;BME280;66032;48.252;11.638;2023-03-01T11:04:46;96268.19;;;4.19;nan
77092;BME280;66032;48.252;11.638;2023-03-01T11:07:23;96263.84;;;4.07;nan
77092;BME280;66032;48.252;11.638;2023-03-01T11:09:50;96264.03;;;4.04;nan
77092;BME280;66032;48.252;11.638;2023-03-01T11:12:17;96244.44;;;3.97;nan
77092;BME280;66032;48.252;11.638;2023-03-01T11:14:48;96231.22;;;3.99;nan
77092;BME280;66032;48.252;11.638;2023-03-01T11:22:31;96230.78;;;3.68;nan
77092;BME280;66032;48.252;11.638;2023-03-01T11:25:00;96218.31;;;3.72;nan
77092;BME280;66032;48.252;11.638;2023-03-01T11:27:43;96219.66;;;3.77;nan
77092;BME280;66032;48.252;11.638;2023-03-01T11:33:05;96220.34;;;3.56;nan
77092;BME280;66032;48.252;11.638;2023-03-01T11:35:41;96222.75;;;3.59;nan
77092;BME280;66032;48.252;11.638;2023-03-01T11:50:49;96195.22;;;3.77;nan
77092;BME280;66032;48.252;11.638;2023-03-01T11:53:35;96189.31;;;3.86;nan
77092;BME280;66032;48.252;11.638;2023-03-01T11:58:40;96186.38;;;3.91;nan
77092;BME280;66032;48.252;11.638;2023-03-01T12:01:15;96184.47;;;3.93;nan
77092;BME280;66032;48.252;11.638;2023-03-01T12:08:49;96189.00;;;4.14;nan
77092;BME280;66032;48.252;11.638;2023-03-01T12:16:28;96184.69;;;4.13;nan
77092;BME280;66032;48.252;11.638;2023-03-01T12:26:36;96157.50;;;4.14;nan
77092;BME280;66032;48.252;11.638;2023-03-01T12:29:33;96163.38;;;4.18;nan
77092;BME280;66032;48.252;11.638;2023-03-01T12:39:53;96143.13;;;4.31;nan
77092;BME280;66032;48.252;11.638;2023-03-01T12:42:35;96131.13;;;4.40;nan
77092;BME280;66032;48.252;11.638;2023-03-01T12:48:04;96121.50;;;4.51;nan
77092;BME280;66032;48.252;11.638;2023-03-01T12:53:04;96135.09;;;4.56;nan
77092;BME280;66032;48.252;11.638;2023-03-01T12:55:33;96133.41;;;4.55;nan
77092;BME280;66032;48.252;11.638;2023-03-01T12:58:02;96132.22;;;4.48;nan
77092;BME280;66032;48.252;11.638;2023-03-01T13:00:32;96124.81;;;4.53;nan
77092;BME280;66032;48.252;11.638;2023-03-01T13:05:57;96128.28;;;4.54;nan
77092;BME280;66032;48.252;11.638;2023-03-01T13:08:32;96131.66;;;4.67;nan
77092;BME280;66032;48.252;11.638;2023-03-01T13:11:03;96132.50;;;4.68;nan
77092;BME280;66032;48.252;11.638;2023-03-01T13:13:31;96140.63;;;4.76;nan
77092;BME280;66032;48.252;11.638;2023-03-01T13:16:11;96134.16;;;4.80;nan
77092;BME280;66032;48.252;11.638;2023-03-01T13:18:45;96144.78;;;4.78;nan
77092;BME280;66032;48.252;11.638;2023-03-01T13:21:12;96149.91;;;4.80;nan
77092;BME280;66032;48.252;11.638;2023-03-01T13:23:39;96143.09;;;4.77;nan
77092;BME280;66032;48.252;11.638;2023-03-01T13:26:08;96142.53;;;4.85;nan
77092;BME280;66032;48.252;11.638;2023-03-01T13:28:39;96132.72;;;4.87;nan
77092;BME280;66032;48.252;11.638;2023-03-01T13:31:09;96135.25;;;4.88;nan
77092;BME280;66032;48.252;11.638;2023-03-01T13:33:41;96138.25;;;4.84;nan
77092;BME280;66032;48.252;11.638;2023-03-01T13:36:45;96122.34;;;4.85;nan
77092;BME280;66032;48.252;11.638;2023-03-01T13:39:01;96114.25;;;4.88;nan
77092;BME280;66032;48.252;11.638;2023-03-01T13:44:21;96106.72;;;4.95;nan
77092;BME280;66032;48.252;11.638;2023-03-01T13:46:51;96090.84;;;4.96;nan
77092;BME280;66032;48.252;11.638;2023-03-01T13:49:20;96095.13;;;4.97;nan
77092;BME280;66032;48.252;11.638;2023-03-01T13:51:50;96103.84;;;4.98;nan
77092;BME280;66032;48.252;11.638;2023-03-01T13:54:22;96104.47;;;5.02;nan
77092;BME280;66032;48.252;11.638;2023-03-01T13:56:51;96104.47;;;5.02;nan
77092;BME280;66032;48.252;11.638;2023-03-01T13:59:20;96099.56;;;5.08;nan
77092;BME280;66032;48.252;11.638;2023-03-01T14:01:58;96101.25;;;5.09;nan
77092;BME280;66032;48.252;11.638;2023-03-01T14:04:30;96091.31;;;5.13;nan
77092;BME280;66032;48.252;11.638;2023-03-01T14:09:44;96096.34;;;5.16;nan
77092;BME280;66032;48.252;11.638;2023-03-01T14:19:45;96090.69;;;5.20;nan
77092;BME280;66032;48.252;11.638;2023-03-01T14:22:23;96071.47;;;5.20;nan
77092;BME280;66032;48.252;11.638;2023-03-01T14:24:53;96074.59;;;5.25;nan
77092;BME280;66032;48.252;11.638;2023-03-01T14:27:21;96078.03;;;5.25;nan
77092;BME280;66032;48.252;11.638;2023-03-01T14:29:57;96072.69;;;5.27;nan
77092;BME280;66032;48.252;11.638;2023-03-01T14:32:25;96067.88;;;5.32;nan
77092;BME280;66032;48.252;11.638;2023-03-01T14:34:53;96059.88;;;5.33;nan
77092;BME280;66032;48.252;11.638;2023-03-01T14:37:22;96056.75;;;5.40;nan
77092;BME280;66032;48.252;11.638;2023-03-01T14:39:49;96062.84;;;5.40;nan
77092;BME280;66032;48.252;11.638;2023-03-01T14:42:17;96058.19;;;5.44;nan
77092;BME280;66032;48.252;11.638;2023-03-01T14:44:46;96046.69;;;5.45;nan
77092;BME280;66032;48.252;11.638;2023-03-01T14:47:15;96055.16;;;5.48;nan
77092;BME280;66032;48.252;11.638;2023-03-01T14:49:43;96037.47;;;5.50;nan